createdAt,value
2023-05-18T00:02:16.153Z,18.67
2023-05-18T00:04:44.324Z,18.65
2023-05-18T00:07:13.149Z,18.75
2023-05-18T00:09:41.356Z,18.66
2023-05-18T00:12:09.971Z,18.72
2023-05-18T00:14:37.901Z,18.59
2023-05-18T00:17:05.314Z,18.57
2023-05-18T00:19:33.367Z,18.42
2023-05-18T00:22:02.327Z,18.50
2023-05-18T00:24:29.900Z,18.46
2023-05-18T00:26:56.912Z,18.44
2023-05-18T00:29:24.457Z,18.64
2023-05-18T00:31:51.668Z,18.54
2023-05-18T00:34:18.732Z,18.43
2023-05-18T00:36:46.450Z,18.55
2023-05-18T00:39:13.434Z,18.46
2023-05-18T00:41:40.964Z,18.45
2023-05-18T00:44:08.444Z,18.52
2023-05-18T00:46:36.425Z,18.51
2023-05-18T00:49:03.662Z,18.29
2023-05-18T00:51:33.467Z,18.50
2023-05-18T00:54:03.766Z,18.34
2023-05-18T00:56:34.507Z,18.23
2023-05-18T00:59:03.553Z,18.23
2023-05-18T01:01:34.965Z,18.45
2023-05-18T01:04:03.325Z,18.26
2023-05-18T01:06:36.064Z,18.35
2023-05-18T01:09:06.921Z,18.47
2023-05-18T01:12:18.173Z,18.49
2023-05-18T01:15:29.559Z,18.48
2023-05-18T01:18:16.425Z,18.22
2023-05-18T01:21:25.593Z,18.57
2023-05-18T01:24:06.010Z,18.42
2023-05-18T01:26:41.472Z,18.17
2023-05-18T01:29:11.490Z,18.04
2023-05-18T01:31:39.946Z,17.89
2023-05-18T01:34:07.075Z,17.97
2023-05-18T01:36:34.129Z,17.79
2023-05-18T01:39:02.811Z,17.97
2023-05-18T01:41:32.519Z,18.35
2023-05-18T01:44:01.926Z,17.98
2023-05-18T01:46:51.464Z,18.18
2023-05-18T01:49:36.099Z,18.23
2023-05-18T01:52:11.657Z,18.17
2023-05-18T01:54:43.680Z,18.04
2023-05-18T01:57:11.542Z,17.94
2023-05-18T01:59:39.462Z,17.90
2023-05-18T02:02:06.691Z,17.83
2023-05-18T02:04:36.548Z,17.88
2023-05-18T02:07:04.774Z,17.80
2023-05-18T02:09:32.266Z,17.83
2023-05-18T02:11:59.947Z,17.92
2023-05-18T02:14:27.114Z,17.83
2023-05-18T02:16:54.567Z,17.80
2023-05-18T02:19:22.970Z,17.96
2023-05-18T02:21:50.156Z,17.73
2023-05-18T02:24:20.387Z,17.75
2023-05-18T02:26:47.838Z,17.57
2023-05-18T02:29:15.265Z,17.72
2023-05-18T02:31:42.822Z,17.70
2023-05-18T02:34:10.514Z,17.70
2023-05-18T02:36:39.807Z,17.52
2023-05-18T02:39:07.836Z,17.56
2023-05-18T02:41:36.252Z,17.64
2023-05-18T02:44:06.429Z,17.79
2023-05-18T02:46:33.864Z,17.68
2023-05-18T02:49:01.564Z,17.57
2023-05-18T02:51:29.972Z,17.55
2023-05-18T02:53:57.703Z,17.53
2023-05-18T02:56:25.043Z,17.43
2023-05-18T02:59:02.338Z,17.38
2023-05-18T03:01:34.899Z,17.47
2023-05-18T03:04:03.042Z,17.43
2023-05-18T03:06:31.424Z,17.48
2023-05-18T03:08:59.202Z,17.43
2023-05-18T03:11:34.185Z,17.36
2023-05-18T03:14:01.628Z,17.47
2023-05-18T03:16:29.575Z,17.37
2023-05-18T03:19:02.285Z,17.37
2023-05-18T03:21:36.064Z,17.37
2023-05-18T03:24:04.102Z,17.47
2023-05-18T03:26:32.707Z,17.38
2023-05-18T03:29:01.610Z,17.37
2023-05-18T03:31:29.166Z,17.34
2023-05-18T03:33:58.447Z,17.38
2023-05-18T03:36:28.262Z,17.21
2023-05-18T03:38:55.519Z,17.32
2023-05-18T03:41:23.134Z,17.28
2023-05-18T03:43:51.247Z,17.26
2023-05-18T03:46:18.750Z,17.30
2023-05-18T03:48:46.262Z,17.14
2023-05-18T03:51:16.335Z,17.04
2023-05-18T03:53:43.554Z,16.96
2023-05-18T03:56:13.714Z,17.08
2023-05-18T03:58:42.469Z,17.13
2023-05-18T04:01:10.037Z,17.02
2023-05-18T04:03:37.710Z,17.09
2023-05-18T04:06:06.423Z,17.06
2023-05-18T04:08:34.404Z,17.19
2023-05-18T04:11:01.657Z,17.12
2023-05-18T04:13:29.161Z,17.25
2023-05-18T04:15:59.153Z,17.20
2023-05-18T04:18:30.225Z,17.17
2023-05-18T04:20:57.405Z,17.11
2023-05-18T04:23:24.642Z,17.20
2023-05-18T04:25:52.233Z,17.00
2023-05-18T04:28:19.386Z,17.06
2023-05-18T04:30:47.923Z,17.09
2023-05-18T04:33:16.441Z,17.16
2023-05-18T04:35:45.431Z,17.07
2023-05-18T04:38:13.563Z,16.84
2023-05-18T04:40:42.962Z,16.92
2023-05-18T04:43:12.537Z,16.98
2023-05-18T04:45:39.711Z,16.90
2023-05-18T04:48:06.882Z,16.49
2023-05-18T04:50:35.915Z,16.88
2023-05-18T04:53:07.914Z,17.42
2023-05-18T04:55:35.940Z,16.99
2023-05-18T04:58:10.375Z,17.01
2023-05-18T05:00:38.007Z,17.20
2023-05-18T05:03:05.745Z,17.28
2023-05-18T05:05:34.152Z,17.22
2023-05-18T05:08:01.596Z,17.28
2023-05-18T05:10:30.974Z,17.23
2023-05-18T05:12:58.116Z,16.97
2023-05-18T05:15:25.294Z,17.02
2023-05-18T05:17:52.746Z,17.19
2023-05-18T05:20:20.440Z,17.15
2023-05-18T05:22:47.819Z,17.32
2023-05-18T05:25:21.744Z,17.49
2023-05-18T05:27:51.628Z,17.55
2023-05-18T05:30:21.053Z,17.26
2023-05-18T05:32:57.874Z,17.60
2023-05-18T05:35:51.671Z,17.02
2023-05-18T05:38:18.906Z,17.19
2023-05-18T05:40:46.518Z,16.87
2023-05-18T05:43:14.061Z,17.15
2023-05-18T05:45:43.680Z,17.37
2023-05-18T05:48:13.666Z,17.23
2023-05-18T05:50:41.893Z,17.04
2023-05-18T05:53:12.238Z,17.10
2023-05-18T05:55:42.006Z,16.44
2023-05-18T05:58:13.704Z,16.72
2023-05-18T06:00:46.193Z,17.36
2023-05-18T06:03:21.380Z,17.60
2023-05-18T06:05:49.685Z,16.89
2023-05-18T06:08:19.657Z,16.97
2023-05-18T06:10:50.888Z,16.97
2023-05-18T06:13:20.858Z,17.32
2023-05-18T06:16:15.851Z,16.85
2023-05-18T06:18:51.224Z,16.99
2023-05-18T06:21:21.958Z,17.31
2023-05-18T06:23:49.719Z,17.19
2023-05-18T06:26:39.940Z,16.95
2023-05-18T06:29:26.166Z,16.35
2023-05-18T06:32:08.797Z,16.91
2023-05-18T06:34:40.431Z,16.70
2023-05-18T06:37:08.054Z,16.89
2023-05-18T06:39:35.272Z,16.99
2023-05-18T06:42:02.820Z,16.89
2023-05-18T06:44:35.317Z,16.98
2023-05-18T06:47:08.069Z,16.83
2023-05-18T06:49:35.761Z,16.78
2023-05-18T06:52:04.046Z,17.43
2023-05-18T06:54:39.050Z,16.76
2023-05-18T06:57:07.235Z,16.67
2023-05-18T06:59:40.805Z,17.20
2023-05-18T07:02:08.456Z,17.35
2023-05-18T07:04:36.016Z,17.19
2023-05-18T07:07:03.052Z,17.08
2023-05-18T07:09:30.158Z,17.38
2023-05-18T07:11:57.231Z,17.18
2023-05-18T07:14:24.407Z,17.02
2023-05-18T07:16:51.539Z,17.04
2023-05-18T07:19:19.162Z,17.42
2023-05-18T07:21:46.347Z,17.88
2023-05-18T07:24:16.109Z,17.42
2023-05-18T07:26:43.798Z,17.64
2023-05-18T07:29:13.281Z,17.60
2023-05-18T07:31:41.359Z,17.52
2023-05-18T07:34:15.264Z,17.13
2023-05-18T07:36:44.831Z,17.53
2023-05-18T07:39:19.439Z,17.51
2023-05-18T07:41:50.083Z,17.28
2023-05-18T07:44:20.970Z,16.89
2023-05-18T07:46:48.239Z,17.62
2023-05-18T07:49:15.875Z,17.41
2023-05-18T07:51:47.521Z,17.28
2023-05-18T07:54:15.058Z,17.14
2023-05-18T07:56:45.477Z,17.89
2023-05-18T07:59:12.674Z,17.83
2023-05-18T08:01:41.553Z,17.81
2023-05-18T08:04:09.354Z,17.07
2023-05-18T08:06:37.774Z,17.09
2023-05-18T08:09:08.559Z,17.39
2023-05-18T08:11:38.144Z,17.41
2023-05-18T08:14:08.329Z,17.54
2023-05-18T08:16:37.824Z,17.49
2023-05-18T08:19:04.964Z,18.15
2023-05-18T08:21:33.362Z,18.25
2023-05-18T08:24:18.865Z,17.94
2023-05-18T08:26:46.284Z,17.38
2023-05-18T08:29:13.973Z,17.52
2023-05-18T08:31:42.381Z,17.57
2023-05-18T08:34:09.553Z,18.06
2023-05-18T08:36:37.412Z,18.72
2023-05-18T08:39:05.572Z,17.82
2023-05-18T08:41:55.918Z,17.93
2023-05-18T08:44:48.218Z,17.63
2023-05-18T08:47:16.458Z,18.45
2023-05-18T08:49:44.222Z,18.48
2023-05-18T08:52:18.179Z,18.98
2023-05-18T08:54:45.884Z,18.54
2023-05-18T08:57:14.196Z,20.21
2023-05-18T08:59:42.788Z,20.77
2023-05-18T09:02:10.927Z,20.32
2023-05-18T09:04:39.125Z,20.46
2023-05-18T09:07:10.006Z,20.72
2023-05-18T09:09:38.492Z,20.59
2023-05-18T09:12:07.177Z,19.66
2023-05-18T09:14:34.624Z,20.33
2023-05-18T09:17:02.346Z,19.33
2023-05-18T09:19:29.526Z,19.66
2023-05-18T09:21:57.138Z,20.08
2023-05-18T09:24:25.014Z,19.81
2023-05-18T09:26:53.073Z,20.24
2023-05-18T09:29:22.557Z,19.91
2023-05-18T09:31:50.305Z,20.22
2023-05-18T09:34:21.259Z,19.88
2023-05-18T09:36:53.117Z,19.39
2023-05-18T09:39:20.954Z,18.68
2023-05-18T09:41:59.035Z,19.33
2023-05-18T09:44:35.622Z,19.47
2023-05-18T09:47:06.694Z,19.74
2023-05-18T09:49:33.905Z,19.77
2023-05-18T09:52:01.800Z,20.38
2023-05-18T09:54:29.402Z,20.47
2023-05-18T09:57:09.667Z,21.00
2023-05-18T09:59:38.795Z,20.76
2023-05-18T10:02:09.085Z,20.95
2023-05-18T10:04:40.555Z,21.09
2023-05-18T10:07:14.840Z,20.70
2023-05-18T10:09:44.505Z,20.20
2023-05-18T10:12:18.696Z,20.72
2023-05-18T10:14:46.753Z,20.55
2023-05-18T10:17:17.094Z,20.40
2023-05-18T10:19:46.757Z,20.95
2023-05-18T10:22:18.082Z,21.36
2023-05-18T10:24:51.489Z,20.72
2023-05-18T10:27:25.537Z,20.09
2023-05-18T10:29:54.725Z,19.43
2023-05-18T10:32:25.416Z,20.93
2023-05-18T10:34:54.293Z,21.65
2023-05-18T10:37:24.318Z,21.85
2023-05-18T10:39:54.884Z,21.94
2023-05-18T10:42:23.777Z,20.99
2023-05-18T10:44:53.012Z,20.71
2023-05-18T10:47:21.950Z,20.01
2023-05-18T10:49:50.127Z,20.77
2023-05-18T10:52:17.930Z,22.38
2023-05-18T10:54:45.935Z,22.37
2023-05-18T10:57:18.320Z,21.84
2023-05-18T10:59:48.398Z,21.82
2023-05-18T11:02:18.987Z,22.13
2023-05-18T11:04:47.983Z,21.65
2023-05-18T11:07:16.097Z,21.43
2023-05-18T11:09:44.965Z,21.67
2023-05-18T11:12:17.948Z,22.31
2023-05-18T11:14:52.566Z,22.74
2023-05-18T11:17:25.897Z,21.69
2023-05-18T11:20:08.228Z,21.75
2023-05-18T11:22:53.335Z,19.98
2023-05-18T11:25:32.893Z,21.34
2023-05-18T11:28:03.387Z,23.08
2023-05-18T11:30:51.623Z,23.06
2023-05-18T11:33:32.616Z,23.44
2023-05-18T11:36:09.621Z,23.76
2023-05-18T11:39:04.774Z,24.42
2023-05-18T11:41:41.975Z,22.09
2023-05-18T11:44:12.434Z,23.12
2023-05-18T11:47:03.673Z,22.09
2023-05-18T11:49:45.931Z,21.64
2023-05-18T11:52:19.981Z,22.70
2023-05-18T11:54:53.727Z,24.07
2023-05-18T11:57:34.654Z,24.29
2023-05-18T12:00:09.770Z,24.45
2023-05-18T12:02:45.889Z,21.76
2023-05-18T12:05:14.520Z,22.99
2023-05-18T12:07:42.693Z,22.84
2023-05-18T12:10:14.993Z,21.70
2023-05-18T12:12:42.958Z,22.98
2023-05-18T12:15:12.036Z,24.18
2023-05-18T12:17:42.646Z,24.31
2023-05-18T12:20:13.782Z,23.49
2023-05-18T12:22:43.713Z,23.25
2023-05-18T12:25:11.520Z,22.40
2023-05-18T12:27:46.226Z,22.51
2023-05-18T12:30:27.115Z,23.14
2023-05-18T12:32:58.107Z,22.97
2023-05-18T12:35:27.184Z,22.72
2023-05-18T12:37:56.255Z,23.76
2023-05-18T12:40:23.728Z,23.72
2023-05-18T12:42:55.506Z,23.23
2023-05-18T12:45:33.685Z,23.95
2023-05-18T12:48:09.346Z,24.52
2023-05-18T12:50:38.882Z,23.44
2023-05-18T12:53:06.525Z,23.70
2023-05-18T12:55:34.743Z,24.02
2023-05-18T12:58:07.416Z,23.35
2023-05-18T13:00:36.427Z,24.97
2023-05-18T13:03:15.200Z,24.79
2023-05-18T13:05:45.562Z,26.07
2023-05-18T13:08:19.929Z,24.15
2023-05-18T13:10:52.945Z,23.95
2023-05-18T13:13:25.328Z,24.97
2023-05-18T13:15:52.765Z,24.49
2023-05-18T13:18:19.818Z,24.77
2023-05-18T13:20:55.029Z,24.68
2023-05-18T13:23:26.701Z,25.23
2023-05-18T13:25:55.505Z,24.39
2023-05-18T13:28:24.521Z,24.78
2023-05-18T13:30:51.585Z,24.33
2023-05-18T13:33:19.278Z,24.02
2023-05-18T13:35:48.646Z,23.41
2023-05-18T13:38:16.531Z,24.70
2023-05-18T13:40:44.390Z,24.42
2023-05-18T13:43:13.785Z,24.84
2023-05-18T13:45:42.089Z,24.75
2023-05-18T13:48:10.929Z,23.15
2023-05-18T13:50:40.155Z,24.63
2023-05-18T13:53:07.336Z,24.49
2023-05-18T13:55:35.461Z,25.00
2023-05-18T13:58:02.947Z,24.86
2023-05-18T14:00:33.572Z,26.31
2023-05-18T14:03:01.896Z,26.37
2023-05-18T14:05:29.258Z,25.38
2023-05-18T14:07:56.872Z,25.36
2023-05-18T14:10:23.997Z,25.05
2023-05-18T14:12:52.289Z,24.36
2023-05-18T14:15:19.592Z,24.56
2023-05-18T14:17:46.940Z,24.02
2023-05-18T14:20:14.464Z,23.95
2023-05-18T14:22:41.965Z,24.60
2023-05-18T14:25:09.836Z,24.86
2023-05-18T14:27:36.953Z,24.63
2023-05-18T14:30:06.382Z,24.72
2023-05-18T14:32:33.607Z,24.70
2023-05-18T14:35:00.814Z,24.87
2023-05-18T14:37:27.988Z,25.25
2023-05-18T14:39:55.230Z,24.77
2023-05-18T14:42:22.825Z,24.91
2023-05-18T14:44:49.962Z,25.42
2023-05-18T14:47:18.010Z,24.53
2023-05-18T14:49:45.123Z,24.99
2023-05-18T14:52:12.509Z,24.66
2023-05-18T14:54:40.507Z,24.41
2023-05-18T14:57:07.582Z,24.16
2023-05-18T14:59:34.617Z,24.63
2023-05-18T15:02:02.127Z,25.24
2023-05-18T15:04:29.262Z,24.94
2023-05-18T15:06:57.210Z,24.99
2023-05-18T15:09:26.722Z,24.09
2023-05-18T15:11:54.083Z,24.14
2023-05-18T15:14:21.318Z,24.34
2023-05-18T15:16:48.438Z,24.42
2023-05-18T15:19:18.243Z,25.07
2023-05-18T15:21:45.418Z,25.56
2023-05-18T15:24:12.440Z,26.30
2023-05-18T15:26:40.088Z,26.35
2023-05-18T15:29:07.179Z,25.58
2023-05-18T15:31:36.859Z,25.22
2023-05-18T15:34:04.104Z,25.35
2023-05-18T15:36:32.473Z,23.95
2023-05-18T15:39:00.158Z,24.58
2023-05-18T15:41:33.031Z,24.85
2023-05-18T15:44:01.891Z,25.61
2023-05-18T15:46:35.684Z,25.45
2023-05-18T15:49:04.118Z,26.03
2023-05-18T15:51:31.809Z,25.55
2023-05-18T15:53:58.937Z,25.39
2023-05-18T15:56:26.271Z,25.30
2023-05-18T15:58:53.774Z,25.27
2023-05-18T16:01:20.960Z,25.45
2023-05-18T16:03:48.145Z,25.01
2023-05-18T16:06:15.288Z,24.60
2023-05-18T16:08:42.406Z,25.08
2023-05-18T16:11:09.856Z,25.15
2023-05-18T16:13:37.011Z,25.09
2023-05-18T16:16:04.793Z,25.36
2023-05-18T16:18:31.839Z,25.41
2023-05-18T16:20:58.999Z,25.24
2023-05-18T16:23:26.066Z,24.85
2023-05-18T16:25:53.187Z,25.05
2023-05-18T16:28:20.243Z,25.10
2023-05-18T16:30:47.760Z,25.05
2023-05-18T16:33:16.930Z,25.04
2023-05-18T16:35:44.061Z,24.42
2023-05-18T16:38:13.341Z,24.87
2023-05-18T16:40:40.853Z,24.76
2023-05-18T16:43:07.943Z,25.51
2023-05-18T16:45:35.618Z,24.63
2023-05-18T16:48:03.860Z,25.00
2023-05-18T16:50:31.819Z,24.59
2023-05-18T16:52:59.257Z,24.34
2023-05-18T16:55:26.669Z,24.75
2023-05-18T16:57:53.814Z,24.86
2023-05-18T17:00:22.040Z,24.35
2023-05-18T17:02:49.472Z,24.00
2023-05-18T17:05:17.464Z,25.02
2023-05-18T17:07:45.028Z,25.12
2023-05-18T17:10:12.482Z,25.03
2023-05-18T17:12:39.809Z,25.23
2023-05-18T17:15:07.988Z,24.93
2023-05-18T17:17:35.039Z,24.92
2023-05-18T17:20:02.445Z,25.13
2023-05-18T17:22:29.558Z,24.69
2023-05-18T17:24:56.636Z,24.96
2023-05-18T17:27:24.035Z,25.42
2023-05-18T17:29:51.087Z,24.94
2023-05-18T17:32:18.141Z,24.43
2023-05-18T17:34:45.188Z,24.46
2023-05-18T17:37:13.366Z,24.41
2023-05-18T17:39:40.455Z,25.11
2023-05-18T17:42:07.636Z,25.07
2023-05-18T17:44:35.149Z,25.13
2023-05-18T17:47:03.310Z,24.71
2023-05-18T17:49:32.476Z,25.32
2023-05-18T17:51:59.538Z,25.23
2023-05-18T17:54:27.040Z,25.34
2023-05-18T17:56:56.606Z,24.52
2023-05-18T17:59:23.682Z,24.50
2023-05-18T18:01:50.960Z,25.04
2023-05-18T18:04:18.345Z,24.98
2023-05-18T18:06:45.692Z,24.92
2023-05-18T18:09:13.041Z,25.25
2023-05-18T18:11:40.109Z,25.68
2023-05-18T18:14:07.225Z,24.74
2023-05-18T18:16:34.956Z,24.94
2023-05-18T18:19:02.843Z,24.80
2023-05-18T18:21:29.965Z,25.55
2023-05-18T18:23:57.424Z,25.82
2023-05-18T18:26:24.646Z,25.88
2023-05-18T18:28:52.422Z,25.11
2023-05-18T18:31:20.828Z,25.49
2023-05-18T18:33:50.346Z,24.06
2023-05-18T18:36:17.816Z,25.48
2023-05-18T18:38:44.978Z,25.23
2023-05-18T18:41:13.032Z,24.92
2023-05-18T18:43:40.571Z,24.98
2023-05-18T18:46:07.735Z,25.48
2023-05-18T18:48:34.914Z,25.64
2023-05-18T18:51:01.945Z,25.91
2023-05-18T18:53:28.993Z,25.65
2023-05-18T18:55:57.249Z,25.73
2023-05-18T18:58:24.434Z,25.73
2023-05-18T19:00:51.534Z,25.65
2023-05-18T19:03:19.052Z,25.53
2023-05-18T19:05:46.814Z,25.13
2023-05-18T19:08:14.263Z,25.00
2023-05-18T19:10:41.688Z,25.15
2023-05-18T19:13:08.746Z,24.83
2023-05-18T19:15:36.699Z,24.64
2023-05-18T19:18:04.318Z,24.72
2023-05-18T19:20:31.824Z,24.71
2023-05-18T19:22:58.991Z,24.68
2023-05-18T19:25:26.485Z,24.61
2023-05-18T19:27:54.339Z,24.53
2023-05-18T19:30:22.805Z,24.56
2023-05-18T19:32:52.538Z,24.45
2023-05-18T19:35:26.248Z,24.34
2023-05-18T19:37:53.408Z,24.02
2023-05-18T19:40:22.849Z,24.64
2023-05-18T19:42:50.767Z,24.70
2023-05-18T19:45:17.881Z,24.73
2023-05-18T19:47:45.133Z,24.47
2023-05-18T19:50:12.512Z,24.34
2023-05-18T19:52:39.622Z,23.92
2023-05-18T19:55:07.353Z,23.98
2023-05-18T19:57:34.618Z,23.86
2023-05-18T20:00:02.461Z,23.94
2023-05-18T20:02:39.474Z,23.87
2023-05-18T20:05:08.089Z,23.98
2023-05-18T20:07:35.233Z,23.81
2023-05-18T20:10:02.322Z,23.75
2023-05-18T20:12:29.384Z,23.45
2023-05-18T20:14:56.645Z,23.62
2023-05-18T20:17:24.854Z,23.42
2023-05-18T20:19:52.126Z,23.43
2023-05-18T20:22:19.994Z,23.55
2023-05-18T20:24:47.260Z,23.22
2023-05-18T20:27:15.039Z,23.47
2023-05-18T20:29:42.312Z,23.50
2023-05-18T20:32:09.552Z,23.44
2023-05-18T20:34:36.777Z,23.34
2023-05-18T20:37:04.391Z,23.31
2023-05-18T20:39:32.118Z,23.20
2023-05-18T20:41:59.544Z,23.32
2023-05-18T20:44:28.863Z,23.36
2023-05-18T20:46:56.020Z,23.31
2023-05-18T20:49:24.997Z,23.32
2023-05-18T20:51:52.142Z,23.31
2023-05-18T20:54:21.223Z,23.21
2023-05-18T20:56:50.775Z,23.16
2023-05-18T20:59:18.327Z,23.11
2023-05-18T21:01:45.554Z,23.03
2023-05-18T21:04:13.331Z,23.14
2023-05-18T21:06:41.237Z,23.25
2023-05-18T21:09:08.640Z,23.25
2023-05-18T21:11:35.923Z,23.22
2023-05-18T21:14:03.300Z,23.21
2023-05-18T21:16:30.743Z,23.17
2023-05-18T21:18:57.931Z,23.13
2023-05-18T21:21:25.428Z,23.13
2023-05-18T21:23:53.101Z,22.60
2023-05-18T21:26:20.687Z,22.76
2023-05-18T21:28:48.165Z,22.71
2023-05-18T21:31:15.302Z,22.75
2023-05-18T21:33:43.203Z,22.82
2023-05-18T21:36:10.724Z,23.15
2023-05-18T21:38:40.464Z,23.02
2023-05-18T21:41:07.457Z,23.14
2023-05-18T21:43:34.529Z,23.12
2023-05-18T21:46:01.583Z,23.13
2023-05-18T21:48:28.631Z,22.95
2023-05-18T21:50:55.684Z,22.79
2023-05-18T21:53:23.101Z,22.91
2023-05-18T21:55:50.217Z,23.22
2023-05-18T21:58:17.548Z,23.24
2023-05-18T22:00:44.718Z,23.14
2023-05-18T22:03:11.795Z,23.17
2023-05-18T22:05:38.883Z,23.02
2023-05-18T22:08:06.088Z,22.75
2023-05-18T22:10:33.922Z,22.93
2023-05-18T22:13:01.214Z,23.09
2023-05-18T22:15:28.438Z,23.15
2023-05-18T22:17:55.724Z,22.98
2023-05-18T22:20:24.042Z,23.09
2023-05-18T22:22:51.593Z,23.21
2023-05-18T22:25:18.870Z,23.03
2023-05-18T22:27:46.591Z,23.29
2023-05-18T22:30:14.191Z,23.25
2023-05-18T22:32:41.376Z,23.06
2023-05-18T22:35:09.592Z,23.21
2023-05-18T22:37:36.899Z,22.98
2023-05-18T22:40:06.320Z,23.22
2023-05-18T22:42:33.792Z,23.12
2023-05-18T22:45:00.972Z,23.04
2023-05-18T22:47:28.416Z,22.90
2023-05-18T22:49:55.942Z,23.12
2023-05-18T22:52:23.014Z,23.13
2023-05-18T22:54:50.590Z,23.16
2023-05-18T22:57:17.670Z,23.09
2023-05-18T22:59:44.749Z,22.69
2023-05-18T23:02:12.293Z,22.96
2023-05-18T23:04:39.484Z,22.68
2023-05-18T23:07:08.428Z,22.26
2023-05-18T23:09:38.412Z,21.75
2023-05-18T23:12:07.074Z,21.78
2023-05-18T23:14:34.113Z,21.87
2023-05-18T23:17:01.217Z,22.04
2023-05-18T23:19:28.521Z,22.19
2023-05-18T23:21:56.603Z,22.30
2023-05-18T23:24:23.683Z,22.43
2023-05-18T23:26:50.903Z,22.47
2023-05-18T23:29:18.299Z,22.40
2023-05-18T23:31:45.496Z,22.37
2023-05-18T23:34:12.949Z,22.39
2023-05-18T23:36:42.951Z,22.61
2023-05-18T23:39:10.423Z,22.37
2023-05-18T23:41:38.438Z,22.51
2023-05-18T23:44:06.524Z,22.80
2023-05-18T23:46:34.911Z,22.63
2023-05-18T23:49:02.558Z,22.25
2023-05-18T23:51:35.897Z,22.43
2023-05-18T23:54:07.572Z,22.12
2023-05-18T23:56:35.384Z,21.98
2023-05-18T23:59:02.790Z,21.91
